createdAt,value
2018-08-09T00:00:39.754Z,96.16
2018-08-09T00:03:08.778Z,96.63
2018-08-09T00:05:37.724Z,97.05
2018-08-09T00:08:06.817Z,98.25
2018-08-09T00:10:35.825Z,98.92
2018-08-09T00:13:04.845Z,98.55
2018-08-09T00:15:33.812Z,99.66
2018-08-09T00:18:02.814Z,100.00
2018-08-09T00:20:31.820Z,99.31
2018-08-09T00:23:00.796Z,99.72
2018-08-09T00:25:29.884Z,99.43
2018-08-09T00:27:58.920Z,100.00
2018-08-09T00:30:27.888Z,100.00
2018-08-09T00:32:56.984Z,100.00
2018-08-09T00:35:25.997Z,100.00
2018-08-09T00:37:54.946Z,100.00
2018-08-09T00:40:23.953Z,100.00
2018-08-09T00:42:53.001Z,100.00
2018-08-09T00:45:22.008Z,100.00
2018-08-09T00:47:51.008Z,100.00
2018-08-09T00:50:19.990Z,100.00
2018-08-09T00:52:49.000Z,100.00
2018-08-09T00:55:18.025Z,100.00
2018-08-09T00:57:47.024Z,100.00
2018-08-09T01:00:16.093Z,100.00
2018-08-09T01:02:45.042Z,100.00
2018-08-09T01:05:13.985Z,100.00
2018-08-09T01:07:43.012Z,100.00
2018-08-09T01:10:12.052Z,100.00
2018-08-09T01:12:41.025Z,100.00
2018-08-09T01:15:09.975Z,100.00
2018-08-09T01:17:39.071Z,100.00
2018-08-09T01:20:08.285Z,100.00
2018-08-09T01:22:37.259Z,100.00
2018-08-09T01:25:06.231Z,100.00
2018-08-09T01:27:35.224Z,100.00
2018-08-09T01:30:04.203Z,100.00
2018-08-09T01:32:33.177Z,100.00
2018-08-09T01:35:02.205Z,100.00
2018-08-09T01:37:31.208Z,100.00
2018-08-09T01:40:00.198Z,100.00
2018-08-09T01:42:40.112Z,100.00
2018-08-09T01:45:09.189Z,100.00
2018-08-09T01:47:38.233Z,100.00
2018-08-09T01:50:07.240Z,100.00
2018-08-09T01:52:36.269Z,100.00
2018-08-09T01:55:05.232Z,100.00
2018-08-09T01:57:34.328Z,100.00
2018-08-09T02:00:03.271Z,100.00
2018-08-09T02:02:32.315Z,100.00
2018-08-09T02:05:01.360Z,100.00
2018-08-09T02:07:30.380Z,100.00
2018-08-09T02:09:59.413Z,100.00
2018-08-09T02:12:28.511Z,100.00
2018-08-09T02:14:57.545Z,100.00
2018-08-09T02:17:26.510Z,100.00
2018-08-09T02:19:55.609Z,100.00
2018-08-09T02:22:24.604Z,100.00
2018-08-09T02:24:53.570Z,100.00
2018-08-09T02:27:22.594Z,100.00
2018-08-09T02:29:51.620Z,100.00
2018-08-09T02:32:20.709Z,100.00
2018-08-09T02:34:49.793Z,100.00
2018-08-09T02:37:18.874Z,100.00
2018-08-09T02:39:47.889Z,100.00
2018-08-09T02:42:16.849Z,100.00
2018-08-09T02:44:45.886Z,100.00
2018-08-09T02:47:14.837Z,100.00
2018-08-09T02:49:43.808Z,100.00
2018-08-09T02:52:12.809Z,100.00
2018-08-09T02:54:41.909Z,100.00
2018-08-09T02:57:10.868Z,100.00
2018-08-09T02:59:39.938Z,100.00
2018-08-09T03:02:08.908Z,100.00
2018-08-09T03:04:37.920Z,100.00
2018-08-09T03:07:07.419Z,100.00
2018-08-09T03:09:36.451Z,100.00
2018-08-09T03:12:05.534Z,100.00
2018-08-09T03:14:34.488Z,100.00
2018-08-09T03:17:03.504Z,100.00
2018-08-09T03:19:32.511Z,100.00
2018-08-09T03:22:01.461Z,100.00
2018-08-09T03:24:30.518Z,100.00
2018-08-09T03:26:59.462Z,100.00
2018-08-09T03:29:28.541Z,100.00
2018-08-09T03:31:57.559Z,100.00
2018-08-09T03:34:26.531Z,100.00
2018-08-09T03:36:55.505Z,100.00
2018-08-09T03:39:24.464Z,100.00
2018-08-09T03:41:53.488Z,100.00
2018-08-09T03:44:22.452Z,100.00
2018-08-09T03:46:51.604Z,100.00
2018-08-09T03:49:20.614Z,100.00
2018-08-09T03:51:49.613Z,100.00
2018-08-09T03:54:18.612Z,100.00
2018-08-09T03:56:47.616Z,100.00
2018-08-09T03:59:16.560Z,100.00
2018-08-09T04:01:45.491Z,100.00
2018-08-09T04:04:14.491Z,100.00
2018-08-09T04:06:43.584Z,100.00
2018-08-09T04:09:12.949Z,100.00
2018-08-09T04:11:42.026Z,100.00
2018-08-09T04:14:11.500Z,100.00
2018-08-09T04:16:40.461Z,100.00
2018-08-09T04:19:09.391Z,100.00
2018-08-09T04:21:38.492Z,100.00
2018-08-09T04:24:07.711Z,100.00
2018-08-09T04:26:36.831Z,100.00
2018-08-09T04:29:05.796Z,100.00
2018-08-09T04:31:34.729Z,93.84
2018-08-09T04:34:03.849Z,83.96
2018-08-09T04:36:32.855Z,74.79
2018-08-09T04:39:01.932Z,67.64
2018-08-09T04:41:30.912Z,63.59
2018-08-09T04:44:00.020Z,59.28
2018-08-09T04:46:28.973Z,56.99
2018-08-09T04:48:58.894Z,56.34
2018-08-09T04:51:27.973Z,54.68
2018-08-09T04:53:56.992Z,51.84
2018-08-09T04:56:26.056Z,51.71
2018-08-09T04:58:54.976Z,50.25
2018-08-09T05:01:24.013Z,48.63
2018-08-09T05:03:53.064Z,47.89
2018-08-09T05:06:21.983Z,46.75
2018-08-09T05:08:50.927Z,45.97
2018-08-09T05:11:19.915Z,45.35
2018-08-09T05:13:48.919Z,43.77
2018-08-09T05:16:17.896Z,44.27
2018-08-09T05:18:46.904Z,42.92
2018-08-09T05:21:15.843Z,42.29
2018-08-09T05:23:44.771Z,42.46
2018-08-09T05:26:13.721Z,43.28
2018-08-09T05:28:42.718Z,41.99
2018-08-09T05:31:11.757Z,42.06
2018-08-09T05:33:41.056Z,41.35
2018-08-09T05:36:10.355Z,41.87
2018-08-09T05:38:39.731Z,42.54
2018-08-09T05:41:08.659Z,42.69
2018-08-09T05:43:37.599Z,42.59
2018-08-09T05:46:06.532Z,42.24
2018-08-09T05:48:35.515Z,41.91
2018-08-09T05:51:04.549Z,42.80
2018-08-09T05:53:33.536Z,44.15
2018-08-09T05:56:02.575Z,44.48
2018-08-09T05:58:31.553Z,44.32
2018-08-09T06:01:00.475Z,45.38
2018-08-09T06:03:29.398Z,45.77
2018-08-09T06:05:58.383Z,46.17
2018-08-09T06:08:27.416Z,47.04
2018-08-09T06:10:56.663Z,49.77
2018-08-09T06:13:26.078Z,51.81
2018-08-09T06:15:55.535Z,53.40
2018-08-09T06:18:24.978Z,56.74
2018-08-09T06:20:54.336Z,61.34
2018-08-09T06:23:23.647Z,59.63
2018-08-09T06:25:52.876Z,57.80
2018-08-09T06:28:22.075Z,58.84
2018-08-09T06:30:51.499Z,55.41
2018-08-09T06:33:20.999Z,53.37
2018-08-09T06:35:50.461Z,55.00
2018-08-09T06:38:19.449Z,56.11
2018-08-09T06:40:48.504Z,58.46
2018-08-09T06:43:17.511Z,59.59
2018-08-09T06:45:46.447Z,57.81
2018-08-09T06:48:15.400Z,55.66
2018-08-09T06:50:44.348Z,56.51
2018-08-09T06:53:13.312Z,55.58
2018-08-09T06:55:42.243Z,55.51
2018-08-09T06:58:11.308Z,56.97
2018-08-09T07:00:40.232Z,56.63
2018-08-09T07:03:09.227Z,58.67
2018-08-09T07:05:38.289Z,58.85
2018-08-09T07:08:07.229Z,59.52
2018-08-09T07:10:36.175Z,61.53
2018-08-09T07:13:05.156Z,58.57
2018-08-09T07:15:34.196Z,58.60
2018-08-09T07:18:03.336Z,59.93
2018-08-09T07:20:32.335Z,61.22
2018-08-09T07:23:01.325Z,61.86
2018-08-09T07:25:30.336Z,60.13
2018-08-09T07:27:59.332Z,60.24
2018-08-09T07:30:28.252Z,60.41
2018-08-09T07:32:57.242Z,61.52
2018-08-09T07:35:26.297Z,58.78
2018-08-09T07:37:55.363Z,60.85
2018-08-09T07:40:24.288Z,58.36
2018-08-09T07:42:53.268Z,55.96
2018-08-09T07:45:22.280Z,54.50
2018-08-09T07:47:51.215Z,54.42
2018-08-09T07:50:20.269Z,53.20
2018-08-09T07:52:49.393Z,56.15
2018-08-09T07:55:18.464Z,52.93
2018-08-09T07:57:47.456Z,50.63
2018-08-09T08:00:16.441Z,50.17
2018-08-09T08:02:45.439Z,52.53
2018-08-09T08:05:14.364Z,51.41
2018-08-09T08:07:43.417Z,49.91
2018-08-09T08:10:12.356Z,50.80
2018-08-09T08:12:41.552Z,49.64
2018-08-09T08:15:11.564Z,48.68
2018-08-09T08:17:40.981Z,49.17
2018-08-09T08:20:10.308Z,48.61
2018-08-09T08:22:39.405Z,53.03
2018-08-09T08:25:08.928Z,51.17
2018-08-09T08:27:37.911Z,46.90
2018-08-09T08:30:10.455Z,50.20
2018-08-09T08:32:40.053Z,49.72
2018-08-09T08:35:09.135Z,48.95
2018-08-09T08:37:38.504Z,46.58
2018-08-09T08:40:08.312Z,46.88
2018-08-09T08:42:37.933Z,45.83
2018-08-09T08:45:09.099Z,46.58
2018-08-09T08:47:38.312Z,46.33
2018-08-09T08:50:07.304Z,44.62
2018-08-09T08:52:36.272Z,43.76
2018-08-09T08:55:07.131Z,43.52
2018-08-09T08:57:36.268Z,43.52
2018-08-09T09:00:07.004Z,42.99
2018-08-09T09:02:36.200Z,46.06
2018-08-09T09:05:06.895Z,46.72
2018-08-09T09:07:36.184Z,44.64
2018-08-09T09:10:05.216Z,43.15
2018-08-09T09:12:34.159Z,42.58
2018-08-09T09:15:03.187Z,42.32
2018-08-09T09:17:32.164Z,40.30
2018-08-09T09:20:01.152Z,41.84
2018-08-09T09:22:30.107Z,45.92
2018-08-09T09:24:59.059Z,46.95
2018-08-09T09:27:28.004Z,42.29
2018-08-09T09:29:56.927Z,42.72
2018-08-09T09:32:26.012Z,43.11
2018-08-09T09:34:55.027Z,41.37
2018-08-09T09:37:24.104Z,40.32
2018-08-09T09:39:53.080Z,40.51
2018-08-09T09:42:22.088Z,41.50
2018-08-09T09:44:51.189Z,39.07
2018-08-09T09:47:20.253Z,39.19
2018-08-09T09:49:49.305Z,38.64
2018-08-09T09:52:18.404Z,38.17
2018-08-09T09:54:47.484Z,38.49
2018-08-09T09:57:16.485Z,37.63
2018-08-09T09:59:45.508Z,36.83
2018-08-09T10:02:14.559Z,36.42
2018-08-09T10:04:43.548Z,34.41
2018-08-09T10:07:12.741Z,32.11
2018-08-09T10:09:41.709Z,33.69
2018-08-09T10:12:10.826Z,33.89
2018-08-09T10:14:39.920Z,32.46
2018-08-09T10:17:08.855Z,34.04
2018-08-09T10:19:37.964Z,36.34
2018-08-09T10:22:07.408Z,35.70
2018-08-09T10:24:36.420Z,36.41
2018-08-09T10:27:05.376Z,34.79
2018-08-09T10:29:34.327Z,33.15
2018-08-09T10:32:03.348Z,32.08
2018-08-09T10:34:32.371Z,31.18
2018-08-09T10:37:01.384Z,31.56
2018-08-09T10:39:30.320Z,31.24
2018-08-09T10:41:59.512Z,31.73
2018-08-09T10:44:28.512Z,31.37
2018-08-09T10:46:57.507Z,28.45
2018-08-09T10:49:26.496Z,28.14
2018-08-09T10:51:55.651Z,28.43
2018-08-09T10:54:24.644Z,28.50
2018-08-09T10:56:53.699Z,27.48
2018-08-09T10:59:22.643Z,26.77
2018-08-09T11:01:51.664Z,26.85
2018-08-09T11:04:20.672Z,26.09
2018-08-09T11:06:49.668Z,27.22
2018-08-09T11:09:18.689Z,26.99
2018-08-09T11:11:47.716Z,27.36
2018-08-09T11:14:16.647Z,27.20
2018-08-09T11:16:45.597Z,24.99
2018-08-09T11:19:14.523Z,24.46
2018-08-09T11:21:43.532Z,24.63
2018-08-09T11:24:12.567Z,24.35
2018-08-09T11:26:41.526Z,23.11
2018-08-09T11:29:10.517Z,24.71
2018-08-09T11:31:39.638Z,25.08
2018-08-09T11:34:08.640Z,24.65
2018-08-09T11:36:37.712Z,26.05
2018-08-09T11:39:10.416Z,26.38
2018-08-09T11:41:39.339Z,24.93
2018-08-09T11:44:08.919Z,25.19
2018-08-09T11:46:37.885Z,23.43
2018-08-09T11:49:06.930Z,23.84
2018-08-09T11:51:35.952Z,23.67
2018-08-09T11:54:04.911Z,24.80
2018-08-09T11:56:33.939Z,22.98
2018-08-09T11:59:02.884Z,23.88
2018-08-09T12:01:32.173Z,24.06
2018-08-09T12:04:01.149Z,22.36
2018-08-09T12:06:30.208Z,22.42
2018-08-09T12:08:59.144Z,21.53
2018-08-09T12:11:28.135Z,22.06
2018-08-09T12:13:57.144Z,21.41
2018-08-09T12:16:26.268Z,21.13
2018-08-09T12:18:55.216Z,21.13
2018-08-09T12:21:24.299Z,20.95
2018-08-09T12:23:53.424Z,21.31
2018-08-09T12:26:22.421Z,21.98
2018-08-09T12:28:51.384Z,23.43
2018-08-09T12:31:20.352Z,25.69
2018-08-09T12:33:49.368Z,25.71
2018-08-09T12:36:18.343Z,26.21
2018-08-09T12:38:47.344Z,25.37
2018-08-09T12:41:16.347Z,24.40
2018-08-09T12:43:45.343Z,23.96
2018-08-09T12:46:14.396Z,24.02
2018-08-09T12:48:43.404Z,23.23
2018-08-09T12:51:12.402Z,21.06
2018-08-09T12:53:41.472Z,22.36
2018-08-09T12:56:10.452Z,21.95
2018-08-09T12:58:39.732Z,21.45
2018-08-09T13:01:08.663Z,21.87
2018-08-09T13:03:37.660Z,22.65
2018-08-09T13:06:06.668Z,23.00
2018-08-09T13:08:35.600Z,22.77
2018-08-09T13:11:04.661Z,23.62
2018-08-09T13:13:33.599Z,25.48
2018-08-09T13:16:02.611Z,24.30
2018-08-09T13:18:31.985Z,23.81
2018-08-09T13:21:00.920Z,23.47
2018-08-09T13:23:29.950Z,24.15
2018-08-09T13:25:58.903Z,24.43
2018-08-09T13:28:27.847Z,24.11
2018-08-09T13:30:56.842Z,22.46
2018-08-09T13:33:25.936Z,23.47
2018-08-09T13:35:54.879Z,24.68
2018-08-09T13:38:23.880Z,24.35
2018-08-09T13:40:52.926Z,26.21
2018-08-09T13:43:21.900Z,26.95
2018-08-09T13:45:50.888Z,26.06
2018-08-09T13:48:19.881Z,26.92
2018-08-09T13:50:48.933Z,27.30
2018-08-09T13:53:17.935Z,26.74
2018-08-09T13:55:47.012Z,27.37
2018-08-09T13:58:16.038Z,26.81
2018-08-09T14:00:44.980Z,28.79
2018-08-09T14:03:14.036Z,29.80
2018-08-09T14:05:43.024Z,29.33
2018-08-09T14:08:12.047Z,31.06
2018-08-09T14:10:41.047Z,30.87
2018-08-09T14:13:10.076Z,32.09
2018-08-09T14:15:39.084Z,32.37
2018-08-09T14:18:08.657Z,34.09
2018-08-09T14:20:38.278Z,34.78
2018-08-09T14:23:08.776Z,35.57
2018-08-09T14:25:38.375Z,36.84
2018-08-09T14:28:08.052Z,37.54
2018-08-09T14:30:37.767Z,37.33
2018-08-09T14:33:07.590Z,38.48
2018-08-09T14:35:38.052Z,37.63
2018-08-09T14:38:08.684Z,39.22
2018-08-09T14:40:38.227Z,40.89
2018-08-09T14:43:07.918Z,38.73
2018-08-09T14:45:38.499Z,39.65
2018-08-09T14:48:08.377Z,39.48
2018-08-09T14:50:37.983Z,39.12
2018-08-09T14:53:07.808Z,38.98
2018-08-09T14:55:37.415Z,38.24
2018-08-09T14:58:08.061Z,39.07
2018-08-09T15:00:37.651Z,41.52
2018-08-09T15:03:07.531Z,40.81
2018-08-09T15:05:37.630Z,41.58
2018-08-09T15:08:07.434Z,39.61
2018-08-09T15:10:37.104Z,40.36
2018-08-09T15:13:06.734Z,40.65
2018-08-09T15:15:36.368Z,38.75
2018-08-09T15:18:05.981Z,40.28
2018-08-09T15:20:35.510Z,39.58
2018-08-09T15:23:05.334Z,39.83
2018-08-09T15:25:34.323Z,40.62
2018-08-09T15:28:03.283Z,41.38
2018-08-09T15:30:32.349Z,40.38
2018-08-09T15:33:01.292Z,40.46
2018-08-09T15:35:30.827Z,40.91
2018-08-09T15:38:00.558Z,41.20
2018-08-09T15:40:30.113Z,41.38
2018-08-09T15:42:59.732Z,42.63
2018-08-09T15:45:28.901Z,42.82
2018-08-09T15:47:57.927Z,41.51
2018-08-09T15:50:26.880Z,42.44
2018-08-09T15:52:55.836Z,43.67
2018-08-09T15:55:24.826Z,41.98
2018-08-09T15:57:53.846Z,43.53
2018-08-09T16:00:24.192Z,42.92
2018-08-09T16:02:53.254Z,43.04
2018-08-09T16:05:22.274Z,43.29
2018-08-09T16:07:51.207Z,43.12
2018-08-09T16:10:20.215Z,43.83
2018-08-09T16:12:49.345Z,43.14
2018-08-09T16:15:19.628Z,43.30
2018-08-09T16:17:49.428Z,42.83
2018-08-09T16:20:18.424Z,43.63
2018-08-09T16:22:47.650Z,44.42
2018-08-09T16:25:18.076Z,44.58
2018-08-09T16:27:48.243Z,44.67
2018-08-09T16:30:23.280Z,46.11
2018-08-09T16:32:52.624Z,46.36
2018-08-09T16:35:22.751Z,46.01
2018-08-09T16:37:51.777Z,46.50
2018-08-09T16:40:23.404Z,46.39
2018-08-09T16:42:52.388Z,46.65
2018-08-09T16:45:22.500Z,47.65
2018-08-09T16:47:52.351Z,47.74
2018-08-09T16:50:22.795Z,48.26
2018-08-09T16:52:52.179Z,49.30
2018-08-09T16:55:22.479Z,50.38
2018-08-09T16:57:51.540Z,50.15
2018-08-09T17:00:21.894Z,50.36
2018-08-09T17:02:51.402Z,50.14
2018-08-09T17:05:21.524Z,51.11
2018-08-09T17:07:51.691Z,51.56
2018-08-09T17:10:21.767Z,51.37
2018-08-09T17:12:51.368Z,51.87
2018-08-09T17:15:22.085Z,53.19
2018-08-09T17:17:51.916Z,53.76
2018-08-09T17:20:24.649Z,53.68
2018-08-09T17:22:53.655Z,54.88
2018-08-09T17:25:23.559Z,54.90
2018-08-09T17:27:52.649Z,57.96
2018-08-09T17:30:24.130Z,61.12
2018-08-09T17:32:53.119Z,61.84
2018-08-09T17:35:22.239Z,63.83
2018-08-09T17:37:52.262Z,65.23
2018-08-09T17:40:25.999Z,66.24
2018-08-09T17:42:57.984Z,65.61
2018-08-09T17:45:34.608Z,65.76
2018-08-09T17:48:04.925Z,68.95
2018-08-09T17:50:33.947Z,67.89
2018-08-09T17:53:04.379Z,68.56
2018-08-09T17:55:34.183Z,69.93
2018-08-09T17:58:03.169Z,69.70
2018-08-09T18:00:33.371Z,69.64
2018-08-09T18:03:02.309Z,69.94
2018-08-09T18:05:31.256Z,68.87
2018-08-09T18:08:00.456Z,71.29
2018-08-09T18:10:31.733Z,71.07
2018-08-09T18:13:00.736Z,71.51
2018-08-09T18:15:30.501Z,71.12
2018-08-09T18:18:00.143Z,72.58
2018-08-09T18:20:32.689Z,71.75
2018-08-09T18:23:01.707Z,71.59
2018-08-09T18:25:30.639Z,69.30
2018-08-09T18:27:59.669Z,70.76
2018-08-09T18:30:28.595Z,72.58
2018-08-09T18:32:57.692Z,72.48
2018-08-09T18:35:26.720Z,71.03
2018-08-09T18:37:57.119Z,72.27
2018-08-09T18:40:27.636Z,72.61
2018-08-09T18:42:58.195Z,73.97
2018-08-09T18:45:27.171Z,75.07
2018-08-09T18:47:58.085Z,74.66
2018-08-09T18:50:28.294Z,75.67
2018-08-09T18:52:57.444Z,75.94
2018-08-09T18:55:26.456Z,77.26
2018-08-09T18:57:55.408Z,77.61
2018-08-09T19:00:26.257Z,76.50
2018-08-09T19:02:55.756Z,77.57
2018-08-09T19:05:25.219Z,76.81
2018-08-09T19:07:54.319Z,76.60
2018-08-09T19:10:24.853Z,76.82
2018-08-09T19:12:53.876Z,76.75
2018-08-09T19:15:22.893Z,75.85
2018-08-09T19:17:52.259Z,75.81
2018-08-09T19:20:24.283Z,78.07
2018-08-09T19:22:53.491Z,78.63
2018-08-09T19:25:22.550Z,76.86
2018-08-09T19:27:51.507Z,76.72
2018-08-09T19:30:21.999Z,76.58
2018-08-09T19:32:51.240Z,75.80
2018-08-09T19:35:21.027Z,75.71
2018-08-09T19:37:50.046Z,77.38
2018-08-09T19:40:23.000Z,78.12
2018-08-09T19:42:51.952Z,77.46
2018-08-09T19:45:21.251Z,78.37
2018-08-09T19:47:50.389Z,78.35
2018-08-09T19:50:20.913Z,79.13
2018-08-09T19:52:49.920Z,79.11
2018-08-09T19:55:21.306Z,79.51
2018-08-09T19:57:50.880Z,79.11
2018-08-09T20:00:21.627Z,77.46
2018-08-09T20:02:50.663Z,79.25
2018-08-09T20:05:19.831Z,78.78
2018-08-09T20:07:48.840Z,79.00
2018-08-09T20:10:17.848Z,79.48
2018-08-09T20:12:47.788Z,79.81
2018-08-09T20:15:19.269Z,78.89
2018-08-09T20:17:48.308Z,77.98
2018-08-09T20:20:18.668Z,78.16
2018-08-09T20:22:47.731Z,78.00
2018-08-09T20:25:16.891Z,78.11
2018-08-09T20:27:46.578Z,79.73
2018-08-09T20:30:17.473Z,79.73
2018-08-09T20:32:47.007Z,79.57
2018-08-09T20:35:21.979Z,80.97
2018-08-09T20:37:51.456Z,81.39
2018-08-09T20:40:21.472Z,81.56
2018-08-09T20:42:51.444Z,81.19
2018-08-09T20:45:21.744Z,82.26
2018-08-09T20:47:50.778Z,82.80
2018-08-09T20:50:22.416Z,84.11
2018-08-09T20:52:51.914Z,83.53
2018-08-09T20:55:20.932Z,83.38
2018-08-09T20:57:50.747Z,84.28
2018-08-09T21:00:21.676Z,84.37
2018-08-09T21:02:51.827Z,84.98
2018-08-09T21:05:25.432Z,85.24
2018-08-09T21:07:55.161Z,85.81
2018-08-09T21:10:24.535Z,86.71
2018-08-09T21:12:53.589Z,86.40
2018-08-09T21:15:22.672Z,86.78
2018-08-09T21:17:51.673Z,87.11
2018-08-09T21:20:20.688Z,87.71
2018-08-09T21:22:50.272Z,88.04
2018-08-09T21:25:19.409Z,88.01
2018-08-09T21:27:48.827Z,88.83
2018-08-09T21:30:19.201Z,89.14
2018-08-09T21:32:48.615Z,89.17
2018-08-09T21:35:17.571Z,89.66
2018-08-09T21:37:46.736Z,90.50
2018-08-09T21:40:16.056Z,89.75
2018-08-09T21:42:45.074Z,89.99
2018-08-09T21:45:16.752Z,89.52
2018-08-09T21:47:45.828Z,89.97
2018-08-09T21:50:16.808Z,89.80
2018-08-09T21:52:45.841Z,90.37
2018-08-09T21:55:15.083Z,90.55
2018-08-09T21:57:45.008Z,90.69
2018-08-09T22:00:53.971Z,91.10
2018-08-09T22:03:25.850Z,90.98
2018-08-09T22:05:59.876Z,91.02
2018-08-09T22:08:33.963Z,91.61
2018-08-09T22:11:08.342Z,90.95
2018-08-09T22:13:42.473Z,91.54
2018-08-09T22:16:16.621Z,91.18
2018-08-09T22:18:50.612Z,92.51
2018-08-09T22:21:24.634Z,92.00
2018-08-09T22:23:53.697Z,92.16
2018-08-09T22:26:22.744Z,93.10
2018-08-09T22:28:51.695Z,92.48
2018-08-09T22:31:20.696Z,92.47
2018-08-09T22:33:49.768Z,94.28
2018-08-09T22:36:18.856Z,94.09
2018-08-09T22:38:47.875Z,94.29
2018-08-09T22:41:16.917Z,93.91
2018-08-09T22:43:45.924Z,94.70
2018-08-09T22:46:14.860Z,94.85
2018-08-09T22:48:43.863Z,95.24
2018-08-09T22:51:12.811Z,95.80
2018-08-09T22:53:41.814Z,95.44
2018-08-09T22:56:10.743Z,95.82
2018-08-09T22:58:39.776Z,96.85
2018-08-09T23:01:08.726Z,97.22
2018-08-09T23:03:37.669Z,97.62
2018-08-09T23:06:07.104Z,97.95
2018-08-09T23:08:36.084Z,98.23
2018-08-09T23:11:05.159Z,98.60
2018-08-09T23:13:34.155Z,98.55
2018-08-09T23:16:03.089Z,99.42
2018-08-09T23:18:32.160Z,98.77
2018-08-09T23:21:01.197Z,99.32
2018-08-09T23:23:30.208Z,99.59
2018-08-09T23:25:59.137Z,99.31
2018-08-09T23:28:28.151Z,99.83
2018-08-09T23:30:57.135Z,99.59
2018-08-09T23:33:26.493Z,99.96
2018-08-09T23:35:55.581Z,100.00
2018-08-09T23:38:24.516Z,100.00
2018-08-09T23:40:53.544Z,100.00
2018-08-09T23:43:22.494Z,100.00
2018-08-09T23:45:51.568Z,100.00
2018-08-09T23:48:20.637Z,100.00
2018-08-09T23:50:49.628Z,100.00
2018-08-09T23:53:18.632Z,100.00
2018-08-09T23:55:47.559Z,100.00
2018-08-09T23:58:16.545Z,100.00
